Time;durP1;ratioP1;P1;durP2;ratioP2;P2;SDS_P1;SDS_P2;PMS_P1;PMS_P2;Temp;Humidity;BMP_temperature;BMP_pressure;BME280_temperature;BME280_humidity;BME280_pressure;Samples;Min_cycle;Max_cycle;Signal;HPM_P1;HPM_P2
2023/04/01 00:00:32;;;;;;;;;;;12.50;68.80;;;;;;5102519;27;89016;-40
2023/04/01 00:02:57;;;;;;;;;;;12.50;69.40;;;;;;5102501;27;88194;-41
2023/04/01 00:05:26;;;;;;;;;;;12.50;68.80;;;;;;5102617;27;87215;-41
2023/04/01 00:07:51;;;;;;;;;;;12.50;68.80;;;;;;5102603;27;88598;-40
2023/04/01 00:10:17;;;;;;;;;;;12.40;68.80;;;;;;5105496;27;89454;-41
2023/04/01 00:12:42;;;;;;;;;;;12.50;68.80;;;;;;5102694;27;87490;-40
2023/04/01 00:15:09;;;;;;;;;;;12.40;68.60;;;;;;5102246;27;89383;-41
2023/04/01 00:17:34;;;;;;;;;;;12.40;68.80;;;;;;5103059;27;86867;-40
2023/04/01 00:20:00;;;;;;;;;;;12.40;68.80;;;;;;5102664;27;87767;-41
2023/04/01 00:22:26;;;;;;;;;;;12.40;68.70;;;;;;5102192;27;89375;-41
2023/04/01 00:24:51;;;;;;;;;;;12.40;68.70;;;;;;5098108;27;88800;-41
2023/04/01 00:27:17;;;;;;;;;;;12.40;68.80;;;;;;5102632;27;89460;-41
2023/04/01 00:29:43;;;;;;;;;;;12.40;68.80;;;;;;5102136;27;89455;-41
2023/04/01 00:32:08;;;;;;;;;;;12.40;68.80;;;;;;5105435;27;87728;-41
2023/04/01 00:34:34;;;;;;;;;;;12.40;68.70;;;;;;5102373;27;88478;-40
2023/04/01 00:37:00;;;;;;;;;;;12.40;68.80;;;;;;5102583;27;87567;-40
2023/04/01 00:39:28;;;;;;;;;;;12.40;68.80;;;;;;5102672;27;89100;-41
2023/04/01 00:41:53;;;;;;;;;;;12.40;68.80;;;;;;5102977;27;87301;-41
2023/04/01 00:44:21;;;;;;;;;;;12.40;68.70;;;;;;5102522;27;87437;-40
2023/04/01 00:46:46;;;;;;;;;;;12.40;68.70;;;;;;5102034;27;88725;-41
2023/04/01 00:49:12;;;;;;;;;;;12.40;68.80;;;;;;5097372;27;90240;-41
2023/04/01 00:51:38;;;;;;;;;;;12.40;68.80;;;;;;5102123;27;87170;-41
2023/04/01 00:54:04;;;;;;;;;;;12.40;68.70;;;;;;5105208;27;87869;-40
2023/04/01 00:56:32;;;;;;;;;;;12.40;68.70;;;;;;5098305;27;87574;-41
2023/04/01 00:59:00;;;;;;;;;;;12.40;68.70;;;;;;5102791;27;87363;-40
2023/04/01 01:01:27;;;;;;;;;;;12.30;68.60;;;;;;5101826;27;89155;-41
2023/04/01 01:03:53;;;;;;;;;;;12.40;68.80;;;;;;5102186;27;87256;-41
2023/04/01 01:06:38;;;;;;;;;;;12.40;68.60;;;;;;5102294;27;87939;-41
2023/04/01 01:09:10;;;;;;;;;;;12.30;68.70;;;;;;5101170;27;89392;-40
2023/04/01 01:11:39;;;;;;;;;;;12.30;68.60;;;;;;5106256;27;87251;-40
2023/04/01 01:14:13;;;;;;;;;;;12.30;68.60;;;;;;5104782;27;89728;-40
2023/04/01 01:16:44;;;;;;;;;;;12.30;68.70;;;;;;5101418;27;89352;-41
2023/04/01 01:19:28;;;;;;;;;;;12.30;68.60;;;;;;5105598;27;88429;-41
2023/04/01 01:22:06;;;;;;;;;;;12.30;68.60;;;;;;5103428;27;89308;-41
2023/04/01 01:24:34;;;;;;;;;;;12.30;68.50;;;;;;5101929;27;88324;-41
2023/04/01 01:27:03;;;;;;;;;;;12.30;68.60;;;;;;5105703;27;87918;-41
2023/04/01 01:29:34;;;;;;;;;;;12.30;68.60;;;;;;5104832;27;89448;-41
2023/04/01 01:32:11;;;;;;;;;;;12.30;68.60;;;;;;5105287;27;86701;-41
2023/04/01 01:34:56;;;;;;;;;;;12.30;68.60;;;;;;5105213;27;88187;-41
2023/04/01 01:37:23;;;;;;;;;;;12.30;68.60;;;;;;5092343;27;89612;-40
2023/04/01 01:39:54;;;;;;;;;;;12.30;68.50;;;;;;5107453;27;88375;-41
2023/04/01 01:42:20;;;;;;;;;;;12.30;68.50;;;;;;5105271;27;88043;-41
2023/04/01 01:44:46;;;;;;;;;;;12.30;68.50;;;;;;5105352;27;87205;-41
2023/04/01 01:47:13;;;;;;;;;;;12.30;68.40;;;;;;5095857;27;89514;-41
2023/04/01 01:49:40;;;;;;;;;;;12.30;68.50;;;;;;5104989;27;88419;-40
2023/04/01 01:52:05;;;;;;;;;;;12.30;68.40;;;;;;5104840;27;87094;-40
2023/04/01 01:54:31;;;;;;;;;;;12.30;68.30;;;;;;5105569;27;88766;-40
2023/04/01 01:57:02;;;;;;;;;;;12.20;68.30;;;;;;5101183;27;88607;-41
2023/04/01 01:59:28;;;;;;;;;;;12.20;68.30;;;;;;5107720;27;87142;-41
2023/04/01 02:01:55;;;;;;;;;;;12.20;68.30;;;;;;5104310;27;89644;-41
2023/04/01 02:04:21;;;;;;;;;;;12.20;68.30;;;;;;5104146;27;88101;-40
2023/04/01 02:06:53;;;;;;;;;;;12.30;68.40;;;;;;5105193;27;88598;-40
2023/04/01 02:09:19;;;;;;;;;;;12.20;68.30;;;;;;5101382;27;89420;-40
2023/04/01 02:11:52;;;;;;;;;;;12.30;68.40;;;;;;5103372;27;87098;-41
2023/04/01 02:14:23;;;;;;;;;;;12.20;68.30;;;;;;5103718;27;88895;-40
2023/04/01 02:17:06;;;;;;;;;;;12.20;68.40;;;;;;5100521;27;89749;-41
2023/04/01 02:19:33;;;;;;;;;;;12.20;68.30;;;;;;5103918;27;87472;-40
2023/04/01 02:22:01;;;;;;;;;;;12.20;68.30;;;;;;5107470;27;88856;-41
2023/04/01 02:24:27;;;;;;;;;;;12.20;68.30;;;;;;5104519;27;87134;-40
2023/04/01 02:26:53;;;;;;;;;;;12.20;68.20;;;;;;5105002;27;87193;-40
2023/04/01 02:29:23;;;;;;;;;;;12.20;68.30;;;;;;5103588;27;90222;-41
2023/04/01 02:31:49;;;;;;;;;;;12.20;68.30;;;;;;5102909;27;87185;-41
2023/04/01 02:34:15;;;;;;;;;;;12.20;68.30;;;;;;5104416;27;88864;-41
2023/04/01 02:36:40;;;;;;;;;;;12.20;68.30;;;;;;5104089;27;89766;-40
2023/04/01 02:39:07;;;;;;;;;;;12.20;68.30;;;;;;5104145;27;87130;-41
2023/04/01 02:41:38;;;;;;;;;;;12.20;68.40;;;;;;5104177;27;87863;-40
2023/04/01 02:44:03;;;;;;;;;;;12.20;68.30;;;;;;5103057;27;87897;-40
2023/04/01 02:46:29;;;;;;;;;;;12.20;68.30;;;;;;5104638;27;88693;-40
2023/04/01 02:48:54;;;;;;;;;;;12.20;68.40;;;;;;5103872;27;87906;-40
2023/04/01 02:51:20;;;;;;;;;;;12.20;68.30;;;;;;5104284;27;87162;-40
2023/04/01 02:53:45;;;;;;;;;;;12.20;68.40;;;;;;5103494;27;88706;-40
2023/04/01 02:56:11;;;;;;;;;;;12.10;68.40;;;;;;5103974;27;88198;-40
2023/04/01 02:58:36;;;;;;;;;;;12.10;68.30;;;;;;5104219;27;87102;-40
2023/04/01 03:01:02;;;;;;;;;;;12.10;68.30;;;;;;5104270;27;87132;-41
2023/04/01 03:03:27;;;;;;;;;;;12.10;68.30;;;;;;5103593;27;89249;-41
2023/04/01 03:05:55;;;;;;;;;;;12.20;68.20;;;;;;5107058;27;87712;-41
2023/04/01 03:08:21;;;;;;;;;;;12.10;68.20;;;;;;5103719;27;89206;-41
2023/04/01 03:10:46;;;;;;;;;;;12.20;68.30;;;;;;5104668;27;86399;-41
2023/04/01 03:13:12;;;;;;;;;;;12.20;68.20;;;;;;5103707;27;88070;-41
2023/04/01 03:15:37;;;;;;;;;;;12.10;68.00;;;;;;5103949;27;88276;-40
2023/04/01 03:18:03;;;;;;;;;;;12.10;68.10;;;;;;5103180;27;88042;-40
2023/04/01 03:20:29;;;;;;;;;;;12.10;68.10;;;;;;5103535;27;90033;-40
2023/04/01 03:22:54;;;;;;;;;;;12.10;68.10;;;;;;5103544;27;88065;-41
2023/04/01 03:25:20;;;;;;;;;;;12.10;68.20;;;;;;5103041;27;87121;-41
2023/04/01 03:27:45;;;;;;;;;;;12.10;68.20;;;;;;5106191;27;88522;-41
2023/04/01 03:30:11;;;;;;;;;;;12.10;68.30;;;;;;5099132;27;87142;-41
2023/04/01 03:32:36;;;;;;;;;;;12.10;68.30;;;;;;5103040;27;87877;-41
2023/04/01 03:35:02;;;;;;;;;;;12.10;68.30;;;;;;5103546;27;88749;-41
2023/04/01 03:37:28;;;;;;;;;;;12.10;68.40;;;;;;5103214;27;87080;-41
2023/04/01 03:39:53;;;;;;;;;;;12.10;68.30;;;;;;5103540;27;88651;-40
2023/04/01 03:42:19;;;;;;;;;;;12.00;68.30;;;;;;5102356;27;90403;-41
2023/04/01 03:44:45;;;;;;;;;;;12.00;68.40;;;;;;5103275;27;87121;-40
2023/04/01 03:47:10;;;;;;;;;;;12.00;68.40;;;;;;5103251;27;88500;-41
2023/04/01 03:49:36;;;;;;;;;;;12.10;68.40;;;;;;5106216;27;88161;-42
2023/04/01 03:52:01;;;;;;;;;;;12.00;68.40;;;;;;5103190;27;88688;-41
2023/04/01 03:54:27;;;;;;;;;;;12.00;68.30;;;;;;5103213;27;88068;-41
2023/04/01 03:56:52;;;;;;;;;;;12.00;68.40;;;;;;5103086;27;87225;-41
2023/04/01 03:59:18;;;;;;;;;;;12.00;68.30;;;;;;5103517;27;89007;-41
2023/04/01 04:01:43;;;;;;;;;;;12.00;68.40;;;;;;5098766;27;88305;-41
2023/04/01 04:04:15;;;;;;;;;;;12.00;68.40;;;;;;5103184;27;87094;-40
2023/04/01 04:06:40;;;;;;;;;;;12.00;68.40;;;;;;5102631;27;88032;-40
2023/04/01 04:09:06;;;;;;;;;;;12.00;68.50;;;;;;5105530;27;89368;-40
2023/04/01 04:11:32;;;;;;;;;;;12.00;68.50;;;;;;5102728;27;88677;-40
2023/04/01 04:13:58;;;;;;;;;;;12.00;68.50;;;;;;5098114;27;89363;-41
2023/04/01 04:16:24;;;;;;;;;;;12.00;68.50;;;;;;5102869;27;87497;-41
2023/04/01 04:18:50;;;;;;;;;;;12.00;68.40;;;;;;5103140;27;87400;-41
2023/04/01 04:21:16;;;;;;;;;;;12.00;68.40;;;;;;5102556;27;89494;-41
2023/04/01 04:23:42;;;;;;;;;;;12.00;68.50;;;;;;5103564;27;87001;-40
2023/04/01 04:26:09;;;;;;;;;;;11.90;68.40;;;;;;5102703;27;88630;-40
2023/04/01 04:28:35;;;;;;;;;;;12.00;68.50;;;;;;5098492;27;89447;-40
2023/04/01 04:31:00;;;;;;;;;;;12.00;68.50;;;;;;5104877;27;88084;-40
2023/04/01 04:33:26;;;;;;;;;;;11.90;68.40;;;;;;5102238;27;87210;-41
2023/04/01 04:35:54;;;;;;;;;;;12.00;68.40;;;;;;5102479;27;87181;-41
2023/04/01 04:38:20;;;;;;;;;;;11.90;68.30;;;;;;5102445;27;88895;-40
2023/04/01 04:40:45;;;;;;;;;;;11.90;68.30;;;;;;5097892;27;89560;-41
2023/04/01 04:43:12;;;;;;;;;;;11.90;68.40;;;;;;5105072;27;87101;-41
2023/04/01 04:45:37;;;;;;;;;;;11.90;68.40;;;;;;5101712;27;89045;-41
2023/04/01 04:48:03;;;;;;;;;;;11.90;68.40;;;;;;5106182;27;88713;-40
2023/04/01 04:50:28;;;;;;;;;;;11.90;68.30;;;;;;5105865;27;87082;-41
2023/04/01 04:52:54;;;;;;;;;;;11.90;68.30;;;;;;5108952;27;87491;-40
2023/04/01 04:55:20;;;;;;;;;;;11.90;68.40;;;;;;5105290;27;87992;-41
2023/04/01 04:57:46;;;;;;;;;;;11.90;68.30;;;;;;5105726;27;89658;-40
2023/04/01 05:00:11;;;;;;;;;;;11.90;68.20;;;;;;5103793;27;91170;-40
2023/04/01 05:02:37;;;;;;;;;;;11.90;68.30;;;;;;5105572;27;87337;-40
2023/04/01 05:05:03;;;;;;;;;;;11.90;68.30;;;;;;5105908;27;87416;-40
2023/04/01 05:07:29;;;;;;;;;;;11.90;68.30;;;;;;5105372;27;88449;-41
2023/04/01 05:09:55;;;;;;;;;;;11.90;68.30;;;;;;5105902;27;87001;-40
2023/04/01 05:12:20;;;;;;;;;;;11.90;68.30;;;;;;5105988;27;88949;-40
2023/04/01 05:14:46;;;;;;;;;;;11.90;68.40;;;;;;5107679;27;89173;-41
2023/04/01 05:17:12;;;;;;;;;;;11.90;68.30;;;;;;5105683;27;87074;-41
2023/04/01 05:19:37;;;;;;;;;;;11.90;68.40;;;;;;5104262;27;90378;-41
2023/04/01 05:22:03;;;;;;;;;;;11.80;68.30;;;;;;5105873;27;87047;-41
2023/04/01 05:24:29;;;;;;;;;;;11.90;68.40;;;;;;5105557;27;88891;-41
2023/04/01 05:26:55;;;;;;;;;;;11.90;68.40;;;;;;5104932;27;89818;-41
2023/04/01 05:29:21;;;;;;;;;;;11.90;68.40;;;;;;5105224;27;87148;-40
2023/04/01 05:31:46;;;;;;;;;;;11.90;68.30;;;;;;5105343;27;88656;-40
2023/04/01 05:34:13;;;;;;;;;;;11.90;68.30;;;;;;5104714;27;89551;-41
2023/04/01 05:36:38;;;;;;;;;;;11.90;68.30;;;;;;5108777;27;86441;-41
2023/04/01 05:39:04;;;;;;;;;;;11.90;68.30;;;;;;5103937;27;88154;-41
2023/04/01 05:41:29;;;;;;;;;;;11.90;68.20;;;;;;5105065;27;87090;-41
2023/04/01 05:43:55;;;;;;;;;;;11.90;68.10;;;;;;5104474;27;88608;-40
2023/04/01 05:46:20;;;;;;;;;;;11.90;68.10;;;;;;5104380;27;89625;-41
2023/04/01 05:48:46;;;;;;;;;;;12.00;68.10;;;;;;5105209;27;87176;-41
2023/04/01 05:51:14;;;;;;;;;;;11.90;68.10;;;;;;5105353;27;87007;-41
2023/04/01 05:53:40;;;;;;;;;;;11.90;68.10;;;;;;5103469;27;89385;-41
2023/04/01 05:56:06;;;;;;;;;;;11.90;68.00;;;;;;5100797;27;87261;-41
2023/04/01 05:58:32;;;;;;;;;;;12.00;68.00;;;;;;5107751;27;89036;-40
2023/04/01 06:01:02;;;;;;;;;;;12.00;67.80;;;;;;5103802;27;86762;-41
2023/04/01 06:03:27;;;;;;;;;;;12.00;67.90;;;;;;5104764;27;88354;-40
2023/04/01 06:05:52;;;;;;;;;;;12.00;68.00;;;;;;5104159;27;89271;-40
2023/04/01 06:08:18;;;;;;;;;;;12.00;67.90;;;;;;5104169;27;88135;-40
2023/04/01 06:10:53;;;;;;;;;;;12.00;68.10;;;;;;5104362;27;89712;-40
2023/04/01 06:13:18;;;;;;;;;;;12.00;68.10;;;;;;5103831;27;88331;-40
2023/04/01 06:15:54;;;;;;;;;;;12.00;68.00;;;;;;5105132;27;87227;-40
2023/04/01 06:18:25;;;;;;;;;;;12.00;68.30;;;;;;5100021;27;89313;-40
2023/04/01 06:20:57;;;;;;;;;;;12.00;68.10;;;;;;5104081;27;87345;-40
2023/04/01 06:23:32;;;;;;;;;;;12.00;68.10;;;;;;5104360;27;89281;-40
2023/04/01 06:26:16;;;;;;;;;;;12.00;68.20;;;;;;5104579;27;88641;-40
2023/04/01 06:29:00;;;;;;;;;;;12.00;68.20;;;;;;5101083;27;87089;-40
2023/04/01 06:31:26;;;;;;;;;;;12.00;68.20;;;;;;5100269;27;87436;-41
2023/04/01 06:34:10;;;;;;;;;;;12.00;68.80;;;;;;5103372;27;88144;-40
2023/04/01 06:36:38;;;;;;;;;;;12.00;68.30;;;;;;5100521;27;87124;-40
2023/04/01 06:39:04;;;;;;;;;;;12.00;68.20;;;;;;5104307;27;87997;-40
2023/04/01 06:41:48;;;;;;;;;;;12.00;68.30;;;;;;5107094;27;88186;-41
2023/04/01 06:44:15;;;;;;;;;;;12.00;68.30;;;;;;5101104;27;88999;-41
2023/04/01 06:46:44;;;;;;;;;;;12.00;68.30;;;;;;5103820;27;89342;-41
2023/04/01 06:49:18;;;;;;;;;;;12.00;68.20;;;;;;5104109;27;87070;-40
2023/04/01 06:51:44;;;;;;;;;;;12.00;68.40;;;;;;5101562;27;86626;-40
2023/04/01 06:54:16;;;;;;;;;;;12.00;68.40;;;;;;5103769;27;89200;-41
2023/04/01 06:56:46;;;;;;;;;;;12.00;68.40;;;;;;5103348;27;87134;-40
2023/04/01 06:59:19;;;;;;;;;;;12.00;68.30;;;;;;5099521;27;88816;-40
2023/04/01 07:01:44;;;;;;;;;;;12.00;68.30;;;;;;5103601;27;89106;-41
2023/04/01 07:04:12;;;;;;;;;;;12.00;68.20;;;;;;5106614;27;87088;-40
2023/04/01 07:06:42;;;;;;;;;;;12.00;68.30;;;;;;5101368;27;89260;-40
2023/04/01 07:09:20;;;;;;;;;;;12.00;68.30;;;;;;5100109;27;87135;-40
2023/04/01 07:11:45;;;;;;;;;;;12.00;68.30;;;;;;5103754;27;88723;-41
2023/04/01 07:14:14;;;;;;;;;;;12.00;68.30;;;;;;5103054;27;89534;-40
2023/04/01 07:16:43;;;;;;;;;;;12.00;68.30;;;;;;5104483;27;87188;-41
2023/04/01 07:19:14;;;;;;;;;;;12.00;68.30;;;;;;5103843;27;88057;-40
2023/04/01 07:21:44;;;;;;;;;;;12.00;68.20;;;;;;5103785;27;89211;-40
2023/04/01 07:24:36;;;;;;;;;;;12.00;68.20;;;;;;5099348;27;88518;-41
2023/04/01 07:27:02;;;;;;;;;;;12.00;68.20;;;;;;5096392;27;89888;-40
2023/04/01 07:29:27;;;;;;;;;;;12.00;68.10;;;;;;5103437;27;87514;-40
2023/04/01 07:31:56;;;;;;;;;;;12.00;68.30;;;;;;5103386;27;87880;-40
2023/04/01 07:34:39;;;;;;;;;;;12.00;68.20;;;;;;5102640;27;89695;-40
2023/04/01 07:37:21;;;;;;;;;;;12.00;68.10;;;;;;5101562;27;87109;-40
2023/04/01 07:40:05;;;;;;;;;;;12.00;68.00;;;;;;5100848;27;88794;-40
2023/04/01 07:42:50;;;;;;;;;;;12.00;68.10;;;;;;5099781;27;88580;-40
2023/04/01 07:45:25;;;;;;;;;;;12.00;68.00;;;;;;5103180;27;87184;-41
2023/04/01 07:47:58;;;;;;;;;;;12.00;67.90;;;;;;5103122;27;88759;-40
2023/04/01 07:50:26;;;;;;;;;;;12.00;68.00;;;;;;5105515;27;90556;-40
2023/04/01 07:53:10;;;;;;;;;;;12.00;68.00;;;;;;5099467;27;88368;-40
2023/04/01 07:55:43;;;;;;;;;;;12.00;68.00;;;;;;5102680;27;89105;-40
2023/04/01 07:58:31;;;;;;;;;;;11.90;68.00;;;;;;5103433;27;87055;-40
2023/04/01 08:01:03;;;;;;;;;;;12.00;68.00;;;;;;5099726;27;88871;-40
2023/04/01 08:03:49;;;;;;;;;;;12.00;67.80;;;;;;5102628;27;88601;-40
2023/04/01 08:06:20;;;;;;;;;;;12.00;67.80;;;;;;5095992;27;87397;-40
2023/04/01 08:08:52;;;;;;;;;;;12.00;67.80;;;;;;5103845;27;87574;-40
2023/04/01 08:11:27;;;;;;;;;;;12.00;67.70;;;;;;5099566;27;88306;-40
2023/04/01 08:14:11;;;;;;;;;;;12.00;67.70;;;;;;5105201;27;86997;-40
2023/04/01 08:16:45;;;;;;;;;;;12.00;67.70;;;;;;5099594;27;90583;-40
2023/04/01 08:19:26;;;;;;;;;;;12.00;67.60;;;;;;5102559;27;87250;-40
2023/04/01 08:21:52;;;;;;;;;;;12.00;67.60;;;;;;5102714;27;88853;-40
2023/04/01 08:24:27;;;;;;;;;;;12.10;67.50;;;;;;5102065;27;89354;-41
2023/04/01 08:26:57;;;;;;;;;;;12.00;67.60;;;;;;5099928;27;87154;-40
2023/04/01 08:29:33;;;;;;;;;;;12.10;67.70;;;;;;5102410;27;88765;-40
2023/04/01 08:32:03;;;;;;;;;;;12.10;67.60;;;;;;5098386;27;89419;-40
2023/04/01 08:34:33;;;;;;;;;;;12.10;67.60;;;;;;5105502;27;86412;-40
2023/04/01 08:37:04;;;;;;;;;;;12.10;67.50;;;;;;5101758;27;89543;-40
2023/04/01 08:39:34;;;;;;;;;;;12.10;67.90;;;;;;5099122;27;88037;-40
2023/04/01 08:42:13;;;;;;;;;;;12.20;67.90;;;;;;5092668;27;90487;-40
2023/04/01 08:44:47;;;;;;;;;;;12.20;67.70;;;;;;5098441;27;89186;-40
2023/04/01 08:47:13;;;;;;;;;;;12.20;67.90;;;;;;5102029;27;87095;-40
2023/04/01 08:49:38;;;;;;;;;;;12.20;67.70;;;;;;5101926;27;88922;-40
2023/04/01 08:52:22;;;;;;;;;;;12.20;67.90;;;;;;5102077;27;89356;-40
2023/04/01 08:54:57;;;;;;;;;;;12.20;67.90;;;;;;5101109;27;87094;-40
2023/04/01 08:57:34;;;;;;;;;;;12.20;67.80;;;;;;5101087;27;89336;-40
2023/04/01 09:00:00;;;;;;;;;;;12.20;67.70;;;;;;5102617;27;86759;-40
2023/04/01 09:02:52;;;;;;;;;;;12.20;67.90;;;;;;5101613;27;88279;-41
2023/04/01 09:05:36;;;;;;;;;;;12.20;67.80;;;;;;5078840;27;89250;-40
2023/04/01 09:08:20;;;;;;;;;;;12.20;67.90;;;;;;5100959;27;88075;-40
2023/04/01 09:11:15;;;;;;;;;;;12.20;68.10;;;;;;5099506;27;89767;-40
2023/04/01 09:13:47;;;;;;;;;;;12.20;68.00;;;;;;5041695;27;89309;-40
2023/04/01 09:16:15;;;;;;;;;;;12.20;67.90;;;;;;5098784;27;87510;-40
2023/04/01 09:18:49;;;;;;;;;;;12.20;68.00;;;;;;5101935;27;89090;-41
2023/04/01 09:21:22;;;;;;;;;;;12.30;68.00;;;;;;5104501;27;89469;-41
2023/04/01 09:24:10;;;;;;;;;;;12.20;67.90;;;;;;5098890;27;89105;-40
2023/04/01 09:26:42;;;;;;;;;;;12.20;68.00;;;;;;5098748;27;88796;-40
2023/04/01 09:29:08;;;;;;;;;;;12.20;67.80;;;;;;5103495;27;87117;-41
2023/04/01 09:31:39;;;;;;;;;;;12.20;67.60;;;;;;5104828;27;88982;-40
2023/04/01 09:34:12;;;;;;;;;;;12.20;67.60;;;;;;5100891;27;89691;-41
2023/04/01 09:36:44;;;;;;;;;;;12.20;67.80;;;;;;5105804;27;87470;-40
2023/04/01 09:39:15;;;;;;;;;;;12.30;68.00;;;;;;5105155;27;88673;-40
2023/04/01 09:41:59;;;;;;;;;;;12.30;68.00;;;;;;5104853;27;88778;-40
2023/04/01 09:44:31;;;;;;;;;;;12.30;68.10;;;;;;5103993;27;88024;-41
2023/04/01 09:46:56;;;;;;;;;;;12.30;68.10;;;;;;5104490;27;89557;-40
2023/04/01 09:49:31;;;;;;;;;;;12.30;68.10;;;;;;5105036;27;87460;-40
2023/04/01 09:52:15;;;;;;;;;;;12.30;68.10;;;;;;5101535;27;88816;-40
2023/04/01 09:54:46;;;;;;;;;;;12.30;68.00;;;;;;5104317;27;88130;-40
2023/04/01 09:57:17;;;;;;;;;;;12.30;68.00;;;;;;5101515;27;87493;-40
2023/04/01 10:00:09;;;;;;;;;;;12.30;68.10;;;;;;5104068;27;88784;-40
2023/04/01 10:02:40;;;;;;;;;;;12.30;68.10;;;;;;5102731;27;89117;-40
2023/04/01 10:05:09;;;;;;;;;;;12.40;68.00;;;;;;5099754;27;87157;-40
2023/04/01 10:07:46;;;;;;;;;;;12.40;68.00;;;;;;5106504;27;88901;-40
2023/04/01 10:10:31;;;;;;;;;;;12.40;68.10;;;;;;5103866;27;87453;-40
2023/04/01 10:13:05;;;;;;;;;;;12.40;68.10;;;;;;5098335;27;89141;-41
2023/04/01 10:16:00;;;;;;;;;;;12.40;68.00;;;;;;5099882;27;89798;-41
2023/04/01 10:18:25;;;;;;;;;;;12.40;68.00;;;;;;5089948;27;86457;-40
2023/04/01 10:21:26;;;;;;;;;;;12.40;67.80;;;;;;5104226;27;87812;-40
2023/04/01 10:24:06;;;;;;;;;;;12.40;67.90;;;;;;5080648;27;87980;-40
2023/04/01 10:26:50;;;;;;;;;;;12.40;67.80;;;;;;5094790;27;88153;-40
2023/04/01 10:29:30;;;;;;;;;;;12.40;67.90;;;;;;5103824;27;89562;-41
2023/04/01 10:31:59;;;;;;;;;;;12.40;67.80;;;;;;5099629;27;87479;-40
2023/04/01 10:34:43;;;;;;;;;;;12.40;67.80;;;;;;5104094;27;88537;-40
2023/04/01 10:37:08;;;;;;;;;;;12.40;67.70;;;;;;5100058;27;87995;-40
2023/04/01 10:39:37;;;;;;;;;;;12.40;67.70;;;;;;5103786;27;87658;-40
2023/04/01 10:42:18;;;;;;;;;;;12.40;67.70;;;;;;5103747;27;89149;-41
2023/04/01 10:44:46;;;;;;;;;;;12.40;67.60;;;;;;5100566;27;88832;-41
2023/04/01 10:47:15;;;;;;;;;;;12.40;67.80;;;;;;5104182;27;87489;-40
2023/04/01 10:49:44;;;;;;;;;;;12.40;67.80;;;;;;5103275;27;88585;-40
2023/04/01 10:52:15;;;;;;;;;;;12.50;67.90;;;;;;5105718;27;90384;-40
2023/04/01 10:54:52;;;;;;;;;;;12.40;67.70;;;;;;5103724;27;89279;-40
2023/04/01 10:57:18;;;;;;;;;;;12.50;67.70;;;;;;5103363;27;88133;-41
2023/04/01 10:59:44;;;;;;;;;;;12.40;67.70;;;;;;5103537;27;87314;-41
2023/04/01 11:02:09;;;;;;;;;;;12.50;67.50;;;;;;5103714;27;89288;-40
2023/04/01 11:04:47;;;;;;;;;;;12.50;67.70;;;;;;5102863;27;89274;-40
2023/04/01 11:07:18;;;;;;;;;;;12.50;67.70;;;;;;5103108;27;87260;-40
2023/04/01 11:09:56;;;;;;;;;;;12.50;67.80;;;;;;5103189;27;88596;-40
2023/04/01 11:12:40;;;;;;;;;;;12.50;67.70;;;;;;5102965;27;87835;-40
2023/04/01 11:15:05;;;;;;;;;;;12.50;67.80;;;;;;5106230;27;87283;-40
2023/04/01 11:17:49;;;;;;;;;;;12.50;67.90;;;;;;5102597;27;89633;-40
2023/04/01 11:20:23;;;;;;;;;;;12.50;67.80;;;;;;5103445;27;87114;-40
2023/04/01 11:22:56;;;;;;;;;;;12.50;67.70;;;;;;5100175;27;89177;-40
2023/04/01 11:25:30;;;;;;;;;;;12.50;67.90;;;;;;5102641;27;89547;-40
2023/04/01 11:28:02;;;;;;;;;;;12.50;68.00;;;;;;5103265;27;86991;-40
2023/04/01 11:30:46;;;;;;;;;;;12.50;67.90;;;;;;5102828;27;88888;-41
2023/04/01 11:33:11;;;;;;;;;;;12.50;68.00;;;;;;5098752;27;89178;-41
2023/04/01 11:35:59;;;;;;;;;;;12.50;68.10;;;;;;5103367;27;86784;-40
2023/04/01 11:38:35;;;;;;;;;;;12.50;68.30;;;;;;5100518;27;87795;-41
2023/04/01 11:41:13;;;;;;;;;;;12.40;69.00;;;;;;5097431;27;87428;-40
2023/04/01 11:43:38;;;;;;;;;;;12.40;69.40;;;;;;5099917;27;87994;-40
2023/04/01 11:46:04;;;;;;;;;;;12.50;69.70;;;;;;5102637;27;89286;-41
2023/04/01 11:48:48;;;;;;;;;;;12.50;69.60;;;;;;5103178;27;87467;-41
2023/04/01 11:51:21;;;;;;;;;;;12.50;70.50;;;;;;5100776;27;87030;-40
2023/04/01 11:53:58;;;;;;;;;;;12.50;70.30;;;;;;5102896;27;89653;-40
2023/04/01 11:56:23;;;;;;;;;;;12.50;69.90;;;;;;5103003;27;87072;-40
2023/04/01 11:58:57;;;;;;;;;;;12.50;69.90;;;;;;5103153;27;89339;-40
2023/04/01 12:01:26;;;;;;;;;;;12.50;69.80;;;;;;5102274;27;87029;-40
2023/04/01 12:04:10;;;;;;;;;;;12.50;69.60;;;;;;5102976;27;88153;-40
2023/04/01 12:06:44;;;;;;;;;;;12.50;69.50;;;;;;5098879;27;89481;-41
2023/04/01 12:09:14;;;;;;;;;;;12.50;69.40;;;;;;5102053;27;88024;-41
2023/04/01 12:11:40;;;;;;;;;;;12.60;69.40;;;;;;5102822;27;89793;-40
2023/04/01 12:14:14;;;;;;;;;;;12.60;69.90;;;;;;5101902;27;89807;-40
2023/04/01 12:16:40;;;;;;;;;;;12.50;69.20;;;;;;5102748;27;86976;-41
2023/04/01 12:19:08;;;;;;;;;;;12.50;69.20;;;;;;5102590;27;88924;-40
2023/04/01 12:21:37;;;;;;;;;;;12.60;69.30;;;;;;5102636;27;89264;-41
2023/04/01 12:24:15;;;;;;;;;;;12.50;69.20;;;;;;5105732;27;87112;-40
2023/04/01 12:26:46;;;;;;;;;;;12.50;69.10;;;;;;5102729;27;88763;-40
2023/04/01 12:29:12;;;;;;;;;;;12.50;69.00;;;;;;5098737;27;87183;-40
2023/04/01 12:31:38;;;;;;;;;;;12.60;69.00;;;;;;5102481;27;88633;-40
2023/04/01 12:34:19;;;;;;;;;;;12.50;68.90;;;;;;5101621;27;88985;-40
2023/04/01 12:36:44;;;;;;;;;;;12.60;68.90;;;;;;5099323;27;86974;-40
2023/04/01 12:39:20;;;;;;;;;;;12.60;68.80;;;;;;5103263;27;88161;-40
2023/04/01 12:41:48;;;;;;;;;;;12.50;68.70;;;;;;5102142;27;89560;-41
2023/04/01 12:44:29;;;;;;;;;;;12.50;68.70;;;;;;5101748;27;87416;-41
2023/04/01 12:47:21;;;;;;;;;;;12.50;68.70;;;;;;5101906;27;89319;-41
2023/04/01 12:50:05;;;;;;;;;;;12.50;68.60;;;;;;5091531;27;87159;-41
2023/04/01 12:52:49;;;;;;;;;;;12.50;68.70;;;;;;5101186;27;87976;-40
2023/04/01 12:55:18;;;;;;;;;;;12.50;68.70;;;;;;5095880;27;88126;-40
2023/04/01 12:57:52;;;;;;;;;;;12.60;68.80;;;;;;5102045;27;86956;-40
2023/04/01 13:00:30;;;;;;;;;;;12.60;68.90;;;;;;5097990;27;88970;-41
2023/04/01 13:03:15;;;;;;;;;;;12.60;68.80;;;;;;5101818;27;89176;-41
2023/04/01 13:05:46;;;;;;;;;;;12.50;68.80;;;;;;5103972;27;87203;-40
2023/04/01 13:08:27;;;;;;;;;;;12.50;68.70;;;;;;5108041;27;88466;-40
2023/04/01 13:11:07;;;;;;;;;;;12.60;68.80;;;;;;5105467;27;87108;-40
2023/04/01 13:13:47;;;;;;;;;;;12.60;68.80;;;;;;5102790;27;89446;-41
2023/04/01 13:16:19;;;;;;;;;;;12.60;68.80;;;;;;5101806;27;88055;-40
2023/04/01 13:19:03;;;;;;;;;;;12.60;68.70;;;;;;5106154;27;86437;-40
2023/04/01 13:21:55;;;;;;;;;;;12.60;68.70;;;;;;5102452;27;87003;-40
2023/04/01 13:24:36;;;;;;;;;;;12.60;68.60;;;;;;5095447;27;89227;-41
2023/04/01 13:27:01;;;;;;;;;;;12.60;68.70;;;;;;5104481;27;87982;-41
2023/04/01 13:29:27;;;;;;;;;;;12.70;68.70;;;;;;5105010;27;89791;-40
2023/04/01 13:31:55;;;;;;;;;;;12.70;68.70;;;;;;5107390;27;88461;-41
2023/04/01 13:34:27;;;;;;;;;;;12.70;68.70;;;;;;5105196;27;88827;-41
2023/04/01 13:37:04;;;;;;;;;;;12.70;68.70;;;;;;5104687;27;88530;-41
2023/04/01 13:39:33;;;;;;;;;;;12.70;68.60;;;;;;5104956;27;87143;-41
2023/04/01 13:42:07;;;;;;;;;;;12.70;68.60;;;;;;5105233;27;88894;-41
2023/04/01 13:44:42;;;;;;;;;;;12.70;68.60;;;;;;5101696;27;88773;-41
2023/04/01 13:47:31;;;;;;;;;;;12.80;68.60;;;;;;5104725;27;87172;-40
2023/04/01 13:50:07;;;;;;;;;;;12.80;68.70;;;;;;5094635;27;87835;-40
2023/04/01 13:52:33;;;;;;;;;;;12.80;68.80;;;;;;5100598;27;89404;-40
2023/04/01 13:55:27;;;;;;;;;;;12.80;68.80;;;;;;5103595;27;87136;-41
2023/04/01 13:57:54;;;;;;;;;;;12.80;69.00;;;;;;5090334;27;88078;-41
2023/04/01 14:00:23;;;;;;;;;;;12.80;68.90;;;;;;5104713;27;87497;-41
2023/04/01 14:03:03;;;;;;;;;;;12.80;69.00;;;;;;5105115;27;87584;-41
2023/04/01 14:05:29;;;;;;;;;;;12.80;68.90;;;;;;5104226;27;89059;-41
2023/04/01 14:08:13;;;;;;;;;;;12.90;69.00;;;;;;5105063;27;87423;-41
2023/04/01 14:10:57;;;;;;;;;;;12.90;69.00;;;;;;5104172;27;86513;-41
2023/04/01 14:13:28;;;;;;;;;;;12.90;69.00;;;;;;5101754;27;88619;-40
2023/04/01 14:16:00;;;;;;;;;;;12.90;69.00;;;;;;5104048;27;87155;-41
2023/04/01 14:18:28;;;;;;;;;;;12.90;69.10;;;;;;5103139;27;88538;-41
2023/04/01 14:21:08;;;;;;;;;;;12.90;69.00;;;;;;5104253;27;87108;-41
2023/04/01 14:23:53;;;;;;;;;;;12.90;68.90;;;;;;5100762;27;89047;-40
2023/04/01 14:26:18;;;;;;;;;;;12.90;68.80;;;;;;5104149;27;89600;-41
2023/04/01 14:29:02;;;;;;;;;;;12.90;68.80;;;;;;5104213;27;87214;-40
2023/04/01 14:31:30;;;;;;;;;;;12.90;68.80;;;;;;5104085;27;88982;-40
2023/04/01 14:34:14;;;;;;;;;;;12.90;68.80;;;;;;5099905;27;88684;-40
2023/04/01 14:36:40;;;;;;;;;;;12.90;68.80;;;;;;5104251;27;86596;-40
2023/04/01 14:39:08;;;;;;;;;;;12.90;68.80;;;;;;5104180;27;88175;-41